Westwood, Louisiana
Current Conditions -  °F | °C
As of 4:53 PM on Wednesday 22 Oct 2014 (Local Time) from KTVR Reporting Station
Clear Clear  
Wind Chill: 74°   Ceiling: Unl
Heat Index: 74°   Visibility: 10mi
Dew Point: 48°   Wind: 12mph
Humidity: 40%   Direction: 30°NNE
Pressure: 30.1"   Gusts: NA
Location:  32.1015°N, 91.2929°W
Report Text: KTVR 222153Z AUTO 03010KT 10SM CLR 23/09 A3010 RMK AO2 SLP198 T02330089
Loading
Personal Weather Stations






























Interactive Weather Map
Tropical Storm Tracking
New forecast layout! Learn more

10-Day Weather Forecast

Advertisements
Track Severe Weather on mobile